Time;durP1;ratioP1;P1;durP2;ratioP2;P2;SDS_P1;SDS_P2;PMS_P1;PMS_P2;Temp;Humidity;BMP_temperature;BMP_pressure;BME280_temperature;BME280_humidity;BME280_pressure;Samples;Min_cycle;Max_cycle;Signal;HPM_P1;HPM_P2
2024/03/10 00:00:08;;;;;;;10.77;5.15;;;9.80;99.90;;;;;;4976050;28;20472;-76
2024/03/10 00:02:34;;;;;;;9.30;5.10;;;9.80;99.90;;;;;;4979849;28;20058;-77
2024/03/10 00:05:00;;;;;;;10.98;4.80;;;9.80;99.90;;;;;;4979545;28;20030;-76
2024/03/10 00:07:26;;;;;;;9.75;5.55;;;9.80;99.90;;;;;;4979939;28;20129;-76
2024/03/10 00:09:52;;;;;;;11.27;5.80;;;9.80;99.90;;;;;;4996665;28;20038;-76
2024/03/10 00:12:18;;;;;;;9.32;4.78;;;9.80;99.90;;;;;;4979784;28;20520;-76
2024/03/10 00:14:43;;;;;;;8.40;5.00;;;9.80;99.90;;;;;;4979353;28;20023;-77
2024/03/10 00:17:09;;;;;;;8.52;4.97;;;9.80;99.90;;;;;;4997180;28;20080;-76
2024/03/10 00:19:35;;;;;;;7.32;4.50;;;9.80;99.90;;;;;;4979018;28;20030;-77
2024/03/10 00:22:01;;;;;;;9.45;4.90;;;9.80;99.90;;;;;;4997053;28;20101;-77
2024/03/10 00:24:27;;;;;;;10.85;4.47;;;9.80;99.90;;;;;;4997328;28;20180;-76
2024/03/10 00:26:52;;;;;;;9.50;4.90;;;9.80;99.90;;;;;;4979108;28;20499;-76
2024/03/10 00:29:18;;;;;;;7.53;4.47;;;9.80;99.90;;;;;;4996686;28;20038;-76
2024/03/10 00:31:44;;;;;;;11.82;5.00;;;9.80;99.90;;;;;;4996271;28;20109;-76
2024/03/10 00:34:09;;;;;;;8.65;4.68;;;9.70;99.90;;;;;;4978775;28;20506;-76
2024/03/10 00:36:35;;;;;;;12.68;4.80;;;9.80;99.90;;;;;;4978839;28;20030;-76
2024/03/10 00:39:01;;;;;;;10.00;5.03;;;9.80;99.90;;;;;;4979317;28;20125;-76
2024/03/10 00:41:26;;;;;;;10.15;4.30;;;9.70;99.90;;;;;;4979285;28;20029;-76
2024/03/10 00:43:52;;;;;;;7.53;3.95;;;9.70;99.90;;;;;;4978874;28;20205;-76
2024/03/10 00:46:17;;;;;;;9.82;4.47;;;9.80;99.90;;;;;;4996747;28;20526;-76
2024/03/10 00:48:43;;;;;;;9.85;4.47;;;9.80;99.90;;;;;;4978613;28;20035;-77
2024/03/10 00:51:09;;;;;;;8.13;4.43;;;9.70;99.90;;;;;;4978934;28;20073;-76
2024/03/10 00:53:34;;;;;;;8.70;4.57;;;9.70;99.90;;;;;;4996186;28;20081;-77
2024/03/10 00:56:00;;;;;;;9.00;4.15;;;9.80;99.90;;;;;;4978997;28;20033;-76
2024/03/10 00:58:25;;;;;;;10.93;4.60;;;9.80;99.90;;;;;;4978967;28;20030;-76
2024/03/10 01:00:51;;;;;;;9.68;4.30;;;9.70;99.90;;;;;;4995923;28;20037;-76
2024/03/10 01:03:17;;;;;;;8.23;4.47;;;9.80;99.90;;;;;;4978650;28;20023;-76
2024/03/10 01:05:43;;;;;;;9.20;4.68;;;9.80;99.90;;;;;;4978470;28;20034;-76
2024/03/10 01:08:08;;;;;;;9.05;4.57;;;9.80;99.90;;;;;;4979022;28;20022;-76
2024/03/10 01:10:35;;;;;;;10.02;4.68;;;9.80;99.90;;;;;;4978471;28;20053;-86
2024/03/10 01:13:01;;;;;;;11.73;4.75;;;9.70;99.90;;;;;;4978469;28;20081;-75
2024/03/10 01:15:26;;;;;;;10.38;4.80;;;9.70;99.90;;;;;;4978628;28;20453;-75
2024/03/10 01:17:53;;;;;;;10.43;4.75;;;9.70;99.90;;;;;;4978092;28;20500;-75
2024/03/10 01:20:20;;;;;;;10.02;4.88;;;9.60;99.90;;;;;;4995750;28;20038;-75
2024/03/10 01:22:46;;;;;;;9.38;4.75;;;9.70;99.90;;;;;;4977737;28;20093;-75
2024/03/10 01:25:11;;;;;;;9.35;4.85;;;9.60;99.90;;;;;;4995271;28;20030;-75
2024/03/10 01:27:37;;;;;;;10.32;4.88;;;9.60;99.90;;;;;;4977698;28;20033;-76
2024/03/10 01:30:03;;;;;;;12.27;5.43;;;9.60;99.90;;;;;;4977973;28;20053;-75
2024/03/10 01:32:30;;;;;;;10.10;5.13;;;9.60;99.90;;;;;;4995011;28;20093;-75
2024/03/10 01:34:55;;;;;;;8.77;4.80;;;9.60;99.90;;;;;;4976824;28;20397;-75
2024/03/10 01:37:21;;;;;;;10.93;4.95;;;9.60;99.90;;;;;;4977509;28;20317;-76
2024/03/10 01:39:47;;;;;;;9.18;4.25;;;9.60;99.90;;;;;;4977288;28;20403;-75
2024/03/10 01:42:13;;;;;;;6.80;4.05;;;9.60;99.90;;;;;;4995113;28;20029;-75
2024/03/10 01:44:39;;;;;;;9.80;4.22;;;9.60;99.90;;;;;;4977458;28;20031;-75
2024/03/10 01:47:05;;;;;;;6.85;4.20;;;9.60;99.90;;;;;;4977924;28;20042;-75
2024/03/10 01:49:30;;;;;;;8.75;4.60;;;9.60;99.90;;;;;;4995464;28;20176;-75
2024/03/10 01:51:57;;;;;;;8.85;3.70;;;9.60;99.90;;;;;;4977602;28;20290;-75
2024/03/10 01:54:30;;;;;;;8.70;4.00;;;9.50;99.90;;;;;;4995316;28;20025;-76
2024/03/10 01:56:57;;;;;;;8.60;3.40;;;9.50;99.90;;;;;;4995128;28;20029;-75
2024/03/10 01:59:23;;;;;;;8.80;4.18;;;9.50;99.90;;;;;;4995688;28;20030;-75
2024/03/10 02:01:48;;;;;;;7.35;3.78;;;9.50;99.90;;;;;;4977489;28;20360;-75
2024/03/10 02:04:14;;;;;;;8.63;4.43;;;9.50;99.90;;;;;;4977870;28;20030;-75
2024/03/10 02:06:43;;;;;;;5.93;3.63;;;9.50;99.90;;;;;;4994787;28;20026;-76
2024/03/10 02:09:10;;;;;;;5.32;3.15;;;9.50;99.90;;;;;;4977755;28;20042;-75
2024/03/10 02:11:36;;;;;;;7.07;3.75;;;9.50;99.90;;;;;;4995018;28;20053;-75
2024/03/10 02:14:03;;;;;;;7.60;4.38;;;9.50;99.90;;;;;;4977074;28;20080;-76
2024/03/10 02:16:28;;;;;;;5.30;3.55;;;9.50;99.90;;;;;;4977793;28;20030;-76
2024/03/10 02:18:54;;;;;;;7.32;4.03;;;9.50;99.90;;;;;;4994307;28;20097;-76
2024/03/10 02:21:24;;;;;;;6.13;3.28;;;9.50;99.90;;;;;;4977364;28;20423;-76
2024/03/10 02:24:19;;;;;;;5.40;3.00;;;9.50;99.90;;;;;;4976228;28;20357;-76
2024/03/10 02:26:48;;;;;;;6.47;3.72;;;9.50;99.90;;;;;;4994410;28;20065;-77
2024/03/10 02:29:23;;;;;;;5.55;3.50;;;9.50;99.90;;;;;;4977039;28;20046;-76
2024/03/10 02:48:20;;;;;;;8.02;4.22;;;9.60;99.90;;;;;;4994464;28;20069;-76
2024/03/10 02:50:46;;;;;;;5.75;3.10;;;9.60;99.90;;;;;;4976423;28;20030;-76
2024/03/10 02:53:12;;;;;;;6.40;3.72;;;9.50;99.90;;;;;;4976965;28;20026;-76
2024/03/10 02:55:38;;;;;;;6.20;3.50;;;9.50;99.90;;;;;;4976785;28;20421;-76
2024/03/10 02:58:05;;;;;;;8.63;4.07;;;9.60;99.90;;;;;;4993918;28;20085;-76
2024/03/10 03:00:34;;;;;;;6.97;3.85;;;9.50;99.90;;;;;;4976879;28;20056;-76
2024/03/10 03:03:00;;;;;;;5.22;3.03;;;9.60;99.90;;;;;;4993717;28;20046;-76
2024/03/10 03:05:26;;;;;;;5.05;3.42;;;9.50;99.90;;;;;;4976245;28;20125;-76
2024/03/10 03:07:58;;;;;;;6.05;3.13;;;9.60;99.90;;;;;;4976175;28;20462;-76
2024/03/10 03:10:24;;;;;;;6.13;2.90;;;9.60;99.90;;;;;;4976925;28;20075;-76
2024/03/10 03:12:51;;;;;;;5.47;3.42;;;9.60;99.90;;;;;;4993707;28;20037;-76
2024/03/10 03:15:17;;;;;;;5.60;3.53;;;9.60;99.90;;;;;;4976890;28;20034;-76
2024/03/10 03:17:43;;;;;;;5.43;3.20;;;9.70;99.90;;;;;;4976189;28;20027;-76
2024/03/10 03:20:15;;;;;;;8.55;3.35;;;9.70;99.90;;;;;;4976797;28;20085;-76
2024/03/10 03:22:45;;;;;;;5.10;2.78;;;9.70;99.90;;;;;;4976783;28;20026;-76
2024/03/10 03:25:14;;;;;;;5.60;3.00;;;9.70;99.90;;;;;;4976465;28;20177;-76
2024/03/10 03:27:44;;;;;;;6.32;3.38;;;9.70;99.90;;;;;;4976357;28;20049;-76
2024/03/10 03:30:10;;;;;;;5.95;2.88;;;9.70;99.90;;;;;;4993758;28;20468;-76
2024/03/10 03:32:36;;;;;;;4.05;2.63;;;9.70;99.90;;;;;;4976579;28;20050;-75
2024/03/10 03:35:02;;;;;;;4.82;3.22;;;9.70;99.90;;;;;;4972250;28;20175;-76
2024/03/10 03:37:28;;;;;;;6.93;2.97;;;9.70;99.90;;;;;;4974306;28;20038;-76
2024/03/10 03:39:54;;;;;;;5.95;3.33;;;9.70;99.90;;;;;;4972363;28;20424;-76
2024/03/10 03:42:20;;;;;;;6.28;3.00;;;9.70;99.90;;;;;;4973073;28;20106;-76
2024/03/10 03:44:45;;;;;;;5.97;3.17;;;9.70;99.90;;;;;;4972436;28;20476;-77
2024/03/10 03:47:15;;;;;;;6.15;2.88;;;9.60;99.90;;;;;;4972956;28;20050;-76
2024/03/10 03:49:40;;;;;;;6.35;3.10;;;9.70;99.90;;;;;;4973112;28;20117;-76
2024/03/10 03:52:09;;;;;;;5.32;2.92;;;9.70;99.90;;;;;;4973706;28;20073;-76
2024/03/10 03:54:34;;;;;;;6.43;3.20;;;9.70;99.90;;;;;;4972753;28;20023;-76
2024/03/10 03:57:00;;;;;;;5.13;2.63;;;9.70;99.90;;;;;;4973631;28;20034;-76
2024/03/10 03:59:26;;;;;;;5.22;2.95;;;9.60;99.90;;;;;;4972470;28;20035;-76
2024/03/10 04:01:52;;;;;;;5.32;2.60;;;9.70;99.90;;;;;;4972346;28;20082;-76
2024/03/10 04:04:18;;;;;;;6.57;3.05;;;9.60;99.90;;;;;;4972652;28;20023;-76
2024/03/10 04:06:43;;;;;;;5.10;3.03;;;9.70;99.90;;;;;;4972658;28;20042;-76
2024/03/10 04:09:10;;;;;;;4.60;2.88;;;9.70;99.90;;;;;;4973464;28;20031;-76
2024/03/10 04:11:35;;;;;;;5.53;3.05;;;9.60;99.90;;;;;;4972668;28;20031;-76
2024/03/10 04:14:01;;;;;;;5.05;2.83;;;9.60;99.90;;;;;;4972015;28;20023;-76
2024/03/10 04:16:26;;;;;;;4.90;2.97;;;9.60;99.90;;;;;;4973732;28;20034;-76
2024/03/10 04:18:52;;;;;;;6.00;3.28;;;9.60;99.90;;;;;;4973447;28;20069;-76
2024/03/10 04:21:18;;;;;;;5.10;2.80;;;9.50;99.90;;;;;;4972631;28;20476;-76
2024/03/10 04:23:44;;;;;;;5.18;3.08;;;9.50;99.90;;;;;;4972788;28;20125;-76
2024/03/10 04:26:10;;;;;;;6.22;3.28;;;9.60;99.90;;;;;;4972124;28;20530;-76
2024/03/10 04:28:36;;;;;;;5.07;3.05;;;9.60;99.90;;;;;;4973586;28;20117;-76
2024/03/10 04:31:02;;;;;;;5.35;2.80;;;9.60;99.90;;;;;;4972116;28;20138;-76
2024/03/10 04:33:27;;;;;;;5.15;2.97;;;9.70;99.90;;;;;;4972048;28;20027;-76
2024/03/10 04:35:53;;;;;;;4.85;2.80;;;9.60;99.90;;;;;;4992590;28;20356;-76
2024/03/10 04:38:19;;;;;;;5.95;3.33;;;9.50;99.90;;;;;;4992953;28;20033;-76
2024/03/10 04:40:44;;;;;;;4.18;2.75;;;9.50;99.90;;;;;;4975812;28;20034;-76
2024/03/10 04:43:10;;;;;;;4.50;2.60;;;9.60;99.90;;;;;;4992530;28;20031;-76
2024/03/10 04:45:36;;;;;;;5.35;3.03;;;9.60;99.90;;;;;;4975836;28;20030;-76
2024/03/10 04:48:02;;;;;;;6.10;2.95;;;9.60;99.90;;;;;;4978283;28;20387;-76
2024/03/10 04:50:29;;;;;;;4.38;2.90;;;9.50;99.90;;;;;;4978807;28;20041;-76
2024/03/10 04:52:57;;;;;;;5.40;3.03;;;9.50;99.90;;;;;;4978567;28;20034;-76
2024/03/10 04:55:23;;;;;;;6.82;3.17;;;9.50;99.90;;;;;;4978904;28;20027;-76
2024/03/10 04:57:49;;;;;;;5.25;3.10;;;9.50;99.90;;;;;;4978395;28;20046;-77
2024/03/10 05:00:18;;;;;;;4.50;2.63;;;9.50;99.90;;;;;;4996620;28;20101;-76
2024/03/10 05:02:46;;;;;;;5.65;3.00;;;9.50;99.90;;;;;;4978877;28;20458;-76
2024/03/10 05:05:13;;;;;;;5.22;2.50;;;9.50;99.90;;;;;;4977949;28;20399;-76
2024/03/10 05:07:39;;;;;;;4.05;2.70;;;9.50;99.90;;;;;;4978931;28;20041;-76
2024/03/10 05:10:06;;;;;;;5.25;2.65;;;9.50;99.90;;;;;;4978220;28;20066;-76
2024/03/10 05:12:31;;;;;;;5.00;2.75;;;9.60;99.90;;;;;;4978509;28;20125;-76
2024/03/10 05:14:57;;;;;;;5.13;2.70;;;9.50;99.90;;;;;;4978402;28;20058;-76
2024/03/10 05:17:22;;;;;;;6.32;2.92;;;9.50;99.90;;;;;;4978666;28;20456;-76
2024/03/10 05:19:48;;;;;;;5.57;3.22;;;9.60;99.90;;;;;;4995842;28;20471;-76
2024/03/10 05:22:16;;;;;;;5.80;3.38;;;9.50;99.90;;;;;;4995826;28;20041;-76
2024/03/10 05:24:44;;;;;;;4.88;2.80;;;9.50;99.90;;;;;;4978586;28;20421;-77
2024/03/10 05:27:10;;;;;;;5.20;2.83;;;9.50;99.90;;;;;;4977584;28;20026;-76
2024/03/10 05:29:36;;;;;;;5.40;3.10;;;9.50;99.90;;;;;;4978527;28;20041;-76
2024/03/10 05:32:05;;;;;;;7.28;3.45;;;9.50;99.90;;;;;;4977896;28;20038;-77
2024/03/10 05:34:32;;;;;;;5.40;3.08;;;9.50;99.90;;;;;;4978312;28;20053;-77
2024/03/10 05:36:59;;;;;;;5.88;3.08;;;9.50;99.90;;;;;;4995348;28;20222;-76
2024/03/10 05:39:24;;;;;;;4.60;2.80;;;9.50;99.90;;;;;;4995587;28;20476;-76
2024/03/10 05:41:50;;;;;;;6.03;2.55;;;9.40;99.90;;;;;;4978106;28;20038;-85
2024/03/10 05:44:15;;;;;;;4.38;2.88;;;9.50;99.90;;;;;;4978301;28;20026;-76
2024/03/10 05:46:41;;;;;;;4.22;2.53;;;9.50;99.90;;;;;;4995279;28;20054;-76
2024/03/10 05:49:07;;;;;;;4.50;2.80;;;9.50;99.90;;;;;;4994983;28;20440;-76
2024/03/10 05:51:33;;;;;;;5.43;3.28;;;9.40;99.90;;;;;;4978407;28;20030;-76
2024/03/10 05:53:58;;;;;;;4.90;3.25;;;9.50;99.90;;;;;;4995115;28;20073;-76
2024/03/10 05:56:24;;;;;;;7.50;2.58;;;9.40;99.90;;;;;;4977952;28;20081;-76
2024/03/10 05:58:50;;;;;;;5.47;2.97;;;9.40;99.90;;;;;;4976767;28;20030;-76
2024/03/10 06:01:23;;;;;;;6.88;2.90;;;9.40;99.90;;;;;;4977644;28;20026;-76
2024/03/10 06:03:51;;;;;;;5.00;2.97;;;9.40;99.90;;;;;;4977795;28;20411;-77
2024/03/10 06:06:19;;;;;;;5.13;3.28;;;9.40;99.90;;;;;;4978019;28;20030;-76
2024/03/10 06:08:45;;;;;;;7.28;2.78;;;9.40;99.90;;;;;;4978153;28;20439;-76
2024/03/10 06:11:11;;;;;;;5.65;3.13;;;9.40;99.90;;;;;;4977139;28;20030;-77
2024/03/10 06:13:38;;;;;;;6.45;3.38;;;9.40;99.90;;;;;;4977664;28;20034;-76
2024/03/10 06:16:05;;;;;;;5.97;3.20;;;9.40;99.90;;;;;;4994574;28;20172;-76
2024/03/10 06:18:31;;;;;;;7.13;3.35;;;9.40;99.90;;;;;;4977535;28;20026;-76
2024/03/10 06:26:26;;;;;;;6.90;3.28;;;9.40;99.90;;;;;;4994941;28;20160;-76
2024/03/10 06:28:52;;;;;;;6.60;3.67;;;9.30;99.90;;;;;;4977164;28;20501;-76
2024/03/10 06:31:18;;;;;;;6.32;3.83;;;9.30;99.90;;;;;;4994744;28;20185;-76
2024/03/10 06:33:45;;;;;;;7.00;3.30;;;9.30;99.90;;;;;;4976987;28;20034;-76
2024/03/10 06:36:11;;;;;;;5.45;3.30;;;9.30;99.90;;;;;;4976693;28;20061;-75
2024/03/10 06:38:38;;;;;;;6.53;3.60;;;9.30;99.90;;;;;;4976771;28;20030;-76
2024/03/10 06:41:07;;;;;;;7.07;3.67;;;9.30;99.90;;;;;;4976242;28;20049;-76
2024/03/10 06:43:34;;;;;;;6.07;3.17;;;9.30;99.90;;;;;;4994273;28;20028;-76
2024/03/10 06:46:00;;;;;;;4.95;3.00;;;9.30;99.90;;;;;;4976396;28;20033;-76
2024/03/10 06:48:25;;;;;;;6.90;3.47;;;9.30;99.90;;;;;;4976845;28;20026;-76
2024/03/10 06:50:52;;;;;;;5.57;3.20;;;9.30;99.90;;;;;;4976727;28;20030;-76
2024/03/10 06:53:17;;;;;;;5.20;2.92;;;9.30;99.90;;;;;;4993581;28;20062;-76
2024/03/10 06:55:44;;;;;;;11.02;3.65;;;9.30;99.90;;;;;;4976478;28;20054;-76
2024/03/10 06:58:10;;;;;;;7.70;3.40;;;9.30;99.90;;;;;;4976130;28;20535;-76
2024/03/10 07:00:37;;;;;;;6.20;3.58;;;9.30;99.90;;;;;;4976567;28;20526;-75
2024/03/10 07:03:04;;;;;;;6.72;3.35;;;9.30;99.90;;;;;;4976219;28;20023;-76
2024/03/10 07:05:30;;;;;;;5.88;3.10;;;9.30;99.90;;;;;;4994201;28;20058;-76
2024/03/10 07:07:56;;;;;;;6.00;3.22;;;9.30;99.90;;;;;;4976306;28;20069;-82
2024/03/10 07:10:22;;;;;;;8.38;3.55;;;9.30;99.90;;;;;;4976254;28;20117;-76
2024/03/10 07:12:48;;;;;;;6.68;3.47;;;9.30;99.90;;;;;;4976504;28;20065;-76
2024/03/10 07:15:15;;;;;;;6.40;3.08;;;9.30;99.90;;;;;;4975992;28;20440;-76
2024/03/10 07:17:41;;;;;;;6.60;3.80;;;9.30;99.90;;;;;;4976701;28;20054;-76
2024/03/10 07:20:10;;;;;;;6.40;3.00;;;9.30;99.90;;;;;;4993420;28;20062;-76
2024/03/10 07:22:38;;;;;;;6.32;3.42;;;9.40;99.90;;;;;;4976402;28;20472;-76
2024/03/10 07:25:08;;;;;;;6.68;3.20;;;9.40;99.90;;;;;;4993326;28;20069;-77
2024/03/10 07:27:34;;;;;;;6.72;3.60;;;9.40;99.90;;;;;;4976416;28;20419;-76
2024/03/10 07:29:59;;;;;;;5.82;3.58;;;9.50;99.90;;;;;;4993201;28;20030;-76
2024/03/10 07:32:26;;;;;;;5.88;3.58;;;9.40;99.90;;;;;;4976469;28;20026;-76
2024/03/10 07:34:52;;;;;;;6.07;3.15;;;9.50;99.90;;;;;;4975874;28;20065;-76
2024/03/10 07:37:18;;;;;;;6.80;3.50;;;9.50;99.90;;;;;;4975900;28;20472;-74
2024/03/10 07:39:44;;;;;;;4.80;3.30;;;9.60;99.90;;;;;;4976356;28;20026;-75
2024/03/10 07:42:10;;;;;;;7.00;3.20;;;9.60;99.90;;;;;;4975932;28;20476;-76
2024/03/10 07:44:35;;;;;;;6.20;3.67;;;9.60;99.90;;;;;;4993655;28;20083;-76
2024/03/10 07:47:02;;;;;;;7.07;3.60;;;9.60;99.90;;;;;;4975702;28;20031;-76
2024/03/10 07:49:27;;;;;;;6.55;3.40;;;9.60;99.90;;;;;;4975915;28;20364;-76
2024/03/10 07:51:53;;;;;;;5.72;3.38;;;9.60;99.90;;;;;;4975756;28;20061;-76
2024/03/10 07:54:18;;;;;;;6.35;3.60;;;9.60;99.90;;;;;;4975360;28;20476;-76
2024/03/10 07:56:44;;;;;;;7.75;3.40;;;9.70;99.90;;;;;;4976186;28;20120;-76
2024/03/10 07:59:11;;;;;;;6.18;3.50;;;9.70;99.90;;;;;;4975557;28;20030;-76
2024/03/10 08:01:37;;;;;;;7.93;3.97;;;9.80;99.90;;;;;;4975889;28;20026;-76
2024/03/10 08:04:03;;;;;;;5.63;3.58;;;9.80;99.90;;;;;;4975579;28;20030;-76
2024/03/10 08:06:28;;;;;;;5.28;2.85;;;9.90;99.90;;;;;;4975967;28;20431;-76
2024/03/10 08:08:54;;;;;;;6.65;3.30;;;9.90;99.90;;;;;;4975992;28;20026;-76
2024/03/10 08:11:23;;;;;;;5.90;3.28;;;9.90;99.90;;;;;;4993184;28;20056;-76
2024/03/10 08:13:49;;;;;;;6.65;3.40;;;10.00;99.90;;;;;;4976191;28;20035;-76
2024/03/10 08:16:15;;;;;;;6.00;3.55;;;10.00;99.90;;;;;;4975382;28;20085;-76
2024/03/10 08:18:41;;;;;;;6.10;3.03;;;10.00;99.90;;;;;;4975468;28;20058;-76
2024/03/10 08:21:07;;;;;;;5.32;3.22;;;10.00;99.90;;;;;;4993183;28;20452;-77
2024/03/10 08:23:34;;;;;;;6.28;3.03;;;10.00;99.90;;;;;;4979635;28;20084;-77
2024/03/10 08:26:00;;;;;;;5.32;2.85;;;10.00;99.90;;;;;;4979084;28;20027;-85
2024/03/10 08:28:27;;;;;;;5.65;3.42;;;10.10;99.90;;;;;;4979712;28;20460;-77
2024/03/10 08:30:54;;;;;;;6.18;3.15;;;10.10;99.90;;;;;;4979692;28;20177;-77
2024/03/10 08:33:19;;;;;;;6.00;3.38;;;10.10;99.90;;;;;;4979108;28;20031;-77
2024/03/10 08:35:46;;;;;;;5.70;2.80;;;10.10;99.90;;;;;;4979105;28;20101;-77
2024/03/10 08:38:13;;;;;;;5.75;2.83;;;10.20;99.90;;;;;;4979131;28;20026;-77
2024/03/10 08:40:38;;;;;;;5.20;3.17;;;10.20;99.90;;;;;;4979573;28;20080;-77
2024/03/10 08:43:04;;;;;;;7.28;3.15;;;10.20;99.90;;;;;;4979268;28;20030;-78
2024/03/10 08:45:31;;;;;;;5.30;3.00;;;10.20;99.90;;;;;;4979836;28;20030;-77
2024/03/10 08:47:57;;;;;;;7.70;3.13;;;10.30;99.90;;;;;;4979495;28;20026;-77
2024/03/10 08:50:22;;;;;;;4.20;2.60;;;10.20;99.90;;;;;;4996110;28;20037;-76
2024/03/10 08:52:48;;;;;;;5.75;3.13;;;10.30;99.90;;;;;;4979416;28;20045;-77
2024/03/10 08:55:16;;;;;;;5.72;3.17;;;10.30;99.90;;;;;;4995933;28;20029;-77
2024/03/10 08:57:42;;;;;;;4.78;2.83;;;10.40;99.90;;;;;;4979375;28;20027;-77
2024/03/10 09:00:11;;;;;;;5.82;3.33;;;10.40;99.90;;;;;;4978924;28;20053;-78
2024/03/10 09:02:39;;;;;;;6.18;2.97;;;10.40;99.90;;;;;;4996428;28;20026;-77
2024/03/10 09:05:07;;;;;;;4.53;2.90;;;10.50;99.90;;;;;;4978266;28;20062;-78
2024/03/10 09:07:33;;;;;;;5.90;3.05;;;10.60;99.90;;;;;;4979208;28;20073;-77
2024/03/10 09:09:59;;;;;;;6.15;3.20;;;10.60;99.90;;;;;;4996186;28;20026;-77
2024/03/10 09:12:25;;;;;;;4.82;3.03;;;10.70;99.90;;;;;;4978381;28;20034;-77
2024/03/10 09:14:51;;;;;;;5.50;2.60;;;10.70;99.90;;;;;;4978819;28;20065;-77
2024/03/10 09:17:17;;;;;;;6.30;3.10;;;10.80;99.90;;;;;;4995564;28;20022;-77
2024/03/10 09:19:42;;;;;;;4.70;3.05;;;10.80;99.90;;;;;;4996150;28;20031;-78
2024/03/10 09:22:10;;;;;;;6.43;3.13;;;10.80;99.90;;;;;;4978371;28;20555;-77
2024/03/10 09:24:36;;;;;;;5.03;2.60;;;10.80;99.90;;;;;;4996052;28;20022;-78
2024/03/10 09:27:03;;;;;;;4.95;2.75;;;10.90;99.90;;;;;;4978619;28;20103;-77
2024/03/10 09:29:29;;;;;;;4.80;2.80;;;10.90;99.90;;;;;;4995878;28;20120;-77
2024/03/10 09:31:56;;;;;;;6.10;3.13;;;11.00;99.90;;;;;;4978869;28;20027;-77
2024/03/10 09:34:25;;;;;;;5.45;3.10;;;11.00;99.90;;;;;;4977417;28;20096;-78
2024/03/10 09:36:51;;;;;;;6.25;3.00;;;11.10;99.90;;;;;;4978564;28;20034;-77
2024/03/10 09:39:17;;;;;;;5.55;3.13;;;11.20;99.90;;;;;;4977860;28;20077;-77
2024/03/10 09:41:43;;;;;;;6.68;3.05;;;11.10;99.90;;;;;;4978241;28;20046;-77
2024/03/10 09:44:17;;;;;;;4.55;2.60;;;11.20;99.90;;;;;;4995243;28;20030;-75
2024/03/10 09:46:44;;;;;;;4.32;2.60;;;11.20;99.90;;;;;;4978175;28;20084;-77
2024/03/10 09:49:16;;;;;;;5.13;3.00;;;11.30;99.90;;;;;;4977188;28;20030;-78
2024/03/10 09:51:44;;;;;;;4.57;2.80;;;11.20;99.90;;;;;;4978005;28;20038;-77
2024/03/10 09:54:11;;;;;;;5.80;2.90;;;11.30;99.80;;;;;;4994985;28;20018;-78
2024/03/10 09:56:38;;;;;;;3.78;2.25;;;11.40;99.60;;;;;;4995327;28;20023;-77
2024/03/10 09:59:04;;;;;;;5.10;2.85;;;11.50;99.60;;;;;;4978154;28;20108;-77
2024/03/10 10:01:31;;;;;;;4.30;2.95;;;11.50;99.30;;;;;;4977321;28;20022;-77
2024/03/10 10:04:01;;;;;;;4.85;2.85;;;11.50;99.60;;;;;;4977861;28;20493;-77
2024/03/10 10:06:31;;;;;;;5.18;2.80;;;11.60;99.50;;;;;;4977456;28;20047;-77
2024/03/10 10:08:59;;;;;;;4.65;2.65;;;11.70;99.20;;;;;;4977734;28;20037;-77
2024/03/10 10:11:25;;;;;;;3.17;2.40;;;11.70;98.80;;;;;;4994651;28;20041;-78
2024/03/10 10:14:10;;;;;;;5.40;2.90;;;11.70;99.10;;;;;;4977667;28;20030;-77
2024/03/10 10:16:37;;;;;;;7.47;2.80;;;11.80;99.40;;;;;;4977485;28;20030;-77
2024/03/10 10:19:05;;;;;;;4.15;2.55;;;11.80;99.70;;;;;;4977521;28;20036;-77
2024/03/10 10:21:31;;;;;;;4.57;2.63;;;11.90;99.30;;;;;;4976993;28;20030;-77
2024/03/10 10:24:00;;;;;;;6.65;2.78;;;11.90;99.50;;;;;;4994783;28;20033;-77
2024/03/10 10:26:26;;;;;;;3.85;2.22;;;11.90;99.30;;;;;;4994303;28;20030;-77
2024/03/10 10:29:11;;;;;;;4.47;2.38;;;11.90;98.90;;;;;;4977318;28;20487;-77
2024/03/10 10:31:37;;;;;;;5.60;2.42;;;12.00;99.30;;;;;;4994557;28;20033;-77
2024/03/10 10:34:05;;;;;;;4.78;2.58;;;12.10;99.70;;;;;;4976899;28;20054;-77
2024/03/10 10:36:37;;;;;;;5.25;2.50;;;12.10;99.10;;;;;;4994383;28;20026;-78
2024/03/10 10:39:08;;;;;;;4.57;2.63;;;12.10;99.20;;;;;;4977542;28;20046;-77
2024/03/10 10:41:36;;;;;;;3.90;2.58;;;12.10;98.60;;;;;;4994571;28;20076;-77
2024/03/10 10:44:04;;;;;;;3.83;2.47;;;12.20;98.40;;;;;;4976497;28;20034;-77
2024/03/10 10:46:32;;;;;;;4.75;2.78;;;12.10;98.10;;;;;;4976553;28;20030;-77
2024/03/10 10:48:58;;;;;;;3.92;2.67;;;12.20;98.90;;;;;;4977294;28;20042;-78
2024/03/10 10:51:23;;;;;;;4.95;2.50;;;12.10;98.30;;;;;;4976838;28;20468;-77
2024/03/10 10:53:49;;;;;;;4.95;2.45;;;12.20;98.20;;;;;;4977031;28;20116;-77
2024/03/10 10:56:14;;;;;;;4.10;2.47;;;12.20;98.20;;;;;;4976704;28;20076;-78
2024/03/10 10:58:47;;;;;;;4.53;2.58;;;12.20;98.30;;;;;;4976964;28;20027;-77
2024/03/10 11:01:14;;;;;;;4.45;2.63;;;12.20;98.10;;;;;;4993972;28;20037;-75
2024/03/10 11:03:40;;;;;;;5.72;3.03;;;12.30;98.80;;;;;;4994210;28;20564;-75
2024/03/10 11:06:08;;;;;;;5.00;3.00;;;12.40;98.50;;;;;;4994155;28;20035;-75
2024/03/10 11:08:39;;;;;;;4.55;2.53;;;12.50;98.60;;;;;;4976602;28;20026;-75
2024/03/10 11:11:05;;;;;;;5.55;2.92;;;12.50;99.00;;;;;;4976880;28;20114;-75
2024/03/10 11:13:32;;;;;;;5.35;2.80;;;12.60;98.80;;;;;;4993694;28;20037;-78
2024/03/10 11:16:14;;;;;;;12.15;3.05;;;12.60;98.50;;;;;;4993854;28;20092;-77
2024/03/10 11:18:41;;;;;;;5.13;2.95;;;12.60;98.50;;;;;;4994036;28;20415;-77
2024/03/10 11:21:12;;;;;;;3.38;2.40;;;12.70;98.50;;;;;;4976688;28;20026;-77
2024/03/10 11:23:47;;;;;;;5.38;2.70;;;12.70;98.50;;;;;;4976876;28;20376;-75
2024/03/10 11:26:15;;;;;;;5.45;2.60;;;12.80;97.70;;;;;;4976255;28;20459;-79
2024/03/10 11:28:50;;;;;;;4.75;2.72;;;12.80;97.50;;;;;;4976485;28;20080;-75
2024/03/10 11:31:35;;;;;;;4.38;2.80;;;12.90;98.20;;;;;;4976435;28;20030;-75
2024/03/10 11:34:03;;;;;;;4.72;2.45;;;12.90;98.10;;;;;;4976256;28;20054;-74
2024/03/10 11:36:47;;;;;;;4.72;2.45;;;13.00;97.90;;;;;;4976088;28;20070;-75
2024/03/10 11:39:19;;;;;;;6.95;3.03;;;12.90;97.80;;;;;;4976026;28;20026;-77
2024/03/10 11:41:50;;;;;;;;;;;13.00;97.20;;;;;;4994341;28;20068;-76
2024/03/10 11:44:17;;;;;;;5.83;2.80;;;13.00;97.10;;;;;;4976081;28;20326;-76
2024/03/10 11:46:43;;;;;;;4.28;2.75;;;13.00;97.70;;;;;;4976544;28;20315;-76
2024/03/10 11:49:11;;;;;;;5.07;2.85;;;13.10;97.10;;;;;;4976277;28;20042;-76
2024/03/10 11:51:38;;;;;;;4.57;2.63;;;13.20;97.30;;;;;;4976322;28;20049;-76
2024/03/10 11:54:07;;;;;;;4.40;2.65;;;13.40;97.70;;;;;;4975982;28;20029;-76
2024/03/10 11:56:33;;;;;;;4.97;2.90;;;13.50;98.00;;;;;;4976501;28;20380;-76
2024/03/10 11:58:59;;;;;;;5.40;2.95;;;13.50;97.50;;;;;;4980261;28;20034;-76
2024/03/10 12:01:26;;;;;;;5.13;2.90;;;13.40;96.30;;;;;;4979711;28;20463;-76
2024/03/10 12:04:05;;;;;;;5.80;2.97;;;13.30;95.60;;;;;;4997827;28;20083;-76
2024/03/10 12:06:32;;;;;;;4.53;2.95;;;13.30;96.00;;;;;;4997069;28;20026;-76
2024/03/10 12:09:00;;;;;;;4.85;2.60;;;13.30;96.10;;;;;;4979781;28;20042;-76
2024/03/10 12:11:26;;;;;;;4.93;2.78;;;13.30;96.10;;;;;;4979586;28;20081;-76
2024/03/10 12:13:51;;;;;;;5.97;2.67;;;13.40;95.40;;;;;;4979968;28;20026;-77
2024/03/10 12:16:17;;;;;;;5.65;3.28;;;13.40;95.50;;;;;;4997114;28;20037;-76
2024/03/10 12:18:43;;;;;;;4.65;2.85;;;13.40;95.50;;;;;;4997136;28;20481;-76
2024/03/10 12:21:14;;;;;;;4.28;2.55;;;13.50;95.20;;;;;;4980026;28;20057;-76
2024/03/10 12:23:42;;;;;;;6.32;2.95;;;13.40;94.90;;;;;;4979893;28;20088;-76
2024/03/10 12:26:09;;;;;;;4.88;2.97;;;13.50;94.70;;;;;;4979709;28;20068;-77
2024/03/10 12:28:39;;;;;;;5.57;2.90;;;13.40;94.80;;;;;;4979285;28;20415;-76
2024/03/10 12:31:16;;;;;;;6.63;3.53;;;13.40;95.40;;;;;;4979785;28;20038;-76
2024/03/10 12:33:44;;;;;;;6.07;3.00;;;13.30;95.50;;;;;;4979408;28;20070;-76
2024/03/10 12:36:10;;;;;;;5.65;2.65;;;13.40;94.90;;;;;;4997047;28;20033;-76
2024/03/10 12:38:39;;;;;;;5.53;2.72;;;13.40;94.80;;;;;;4979137;28;20034;-76
2024/03/10 12:41:09;;;;;;;5.85;2.60;;;13.30;95.00;;;;;;4979289;28;20117;-76
2024/03/10 12:43:40;;;;;;;4.28;2.63;;;13.30;95.00;;;;;;4978937;28;20041;-76
2024/03/10 12:46:07;;;;;;;8.45;4.28;;;13.30;95.00;;;;;;4979268;28;20052;-76
2024/03/10 12:48:32;;;;;;;5.72;3.10;;;13.30;94.70;;;;;;4996283;28;20030;-76
2024/03/10 12:50:58;;;;;;;4.63;3.13;;;13.30;94.10;;;;;;4979032;28;20388;-76
2024/03/10 12:53:24;;;;;;;5.50;2.67;;;13.30;94.30;;;;;;4978788;28;20034;-77
2024/03/10 12:55:50;;;;;;;5.13;2.67;;;13.30;94.40;;;;;;4979088;28;20026;-77
2024/03/10 12:58:17;;;;;;;5.32;2.97;;;13.30;94.60;;;;;;4996057;28;20150;-86
2024/03/10 13:00:44;;;;;;;8.27;4.20;;;13.30;94.60;;;;;;4978952;28;20061;-76
2024/03/10 13:03:10;;;;;;;6.82;3.75;;;13.30;95.00;;;;;;4978771;28;20539;-76
2024/03/10 13:05:36;;;;;;;6.95;4.20;;;13.30;95.00;;;;;;4995811;28;20435;-76
2024/03/10 13:08:02;;;;;;;7.53;3.90;;;13.40;95.30;;;;;;4978424;28;20034;-76
2024/03/10 13:10:32;;;;;;;6.68;3.90;;;13.40;95.20;;;;;;4978039;28;20031;-77
2024/03/10 13:12:58;;;;;;;7.32;4.15;;;13.40;95.70;;;;;;4978335;28;20029;-77